sensor_id;sensor_type;location;lat;lon;timestamp;pressure;altitude;pressure_sealevel;temperature
51693;BMP280;37777;53.066;21.638;2023-08-06T00:00:17;99548.66;;;19.61
51693;BMP280;37777;53.066;21.638;2023-08-06T00:07:19;99536.13;;;19.60
51693;BMP280;37777;53.066;21.638;2023-08-06T00:14:20;99517.59;;;19.64
51693;BMP280;37777;53.066;21.638;2023-08-06T00:21:22;99519.06;;;19.69
51693;BMP280;37777;53.066;21.638;2023-08-06T00:28:23;99510.41;;;19.71
51693;BMP280;37777;53.066;21.638;2023-08-06T00:35:24;99493.97;;;19.71
51693;BMP280;37777;53.066;21.638;2023-08-06T00:42:26;99464.88;;;19.73
51693;BMP280;37777;53.066;21.638;2023-08-06T00:49:27;99463.59;;;19.78
51693;BMP280;37777;53.066;21.638;2023-08-06T00:56:29;99450.63;;;19.78
51693;BMP280;37777;53.066;21.638;2023-08-06T01:03:31;99441.44;;;19.85
51693;BMP280;37777;53.066;21.638;2023-08-06T01:10:54;99411.19;;;19.89
51693;BMP280;37777;53.066;21.638;2023-08-06T01:17:59;99422.03;;;19.92
51693;BMP280;37777;53.066;21.638;2023-08-06T01:25:00;99419.63;;;19.94
51693;BMP280;37777;53.066;21.638;2023-08-06T01:32:03;99424.56;;;19.99
51693;BMP280;37777;53.066;21.638;2023-08-06T01:39:05;99413.50;;;20.03
51693;BMP280;37777;53.066;21.638;2023-08-06T01:46:06;99428.75;;;20.04
51693;BMP280;37777;53.066;21.638;2023-08-06T01:53:08;99425.91;;;20.08
51693;BMP280;37777;53.066;21.638;2023-08-06T02:00:10;99440.00;;;20.10
51693;BMP280;37777;53.066;21.638;2023-08-06T02:07:11;99487.59;;;20.03
51693;BMP280;37777;53.066;21.638;2023-08-06T02:14:13;99472.00;;;20.00
51693;BMP280;37777;53.066;21.638;2023-08-06T02:21:15;99460.06;;;20.07
51693;BMP280;37777;53.066;21.638;2023-08-06T02:28:16;99428.22;;;19.96
51693;BMP280;37777;53.066;21.638;2023-08-06T02:35:18;99427.63;;;19.89
51693;BMP280;37777;53.066;21.638;2023-08-06T02:42:19;99392.41;;;19.87
51693;BMP280;37777;53.066;21.638;2023-08-06T02:49:20;99370.00;;;19.89
51693;BMP280;37777;53.066;21.638;2023-08-06T02:56:22;99351.09;;;19.91
51693;BMP280;37777;53.066;21.638;2023-08-06T03:03:23;99343.75;;;19.88
51693;BMP280;37777;53.066;21.638;2023-08-06T03:10:25;99333.09;;;19.90
51693;BMP280;37777;53.066;21.638;2023-08-06T03:17:26;99316.31;;;19.88
51693;BMP280;37777;53.066;21.638;2023-08-06T03:24:28;99292.16;;;19.82
51693;BMP280;37777;53.066;21.638;2023-08-06T03:31:29;99290.53;;;19.85
51693;BMP280;37777;53.066;21.638;2023-08-06T03:38:31;99280.66;;;19.88
51693;BMP280;37777;53.066;21.638;2023-08-06T03:45:32;99265.28;;;19.90
51693;BMP280;37777;53.066;21.638;2023-08-06T03:52:33;99247.84;;;19.97
51693;BMP280;37777;53.066;21.638;2023-08-06T03:59:35;99237.84;;;20.03
51693;BMP280;37777;53.066;21.638;2023-08-06T04:06:36;99224.31;;;20.09
51693;BMP280;37777;53.066;21.638;2023-08-06T04:13:38;99217.75;;;20.19
51693;BMP280;37777;53.066;21.638;2023-08-06T04:20:48;99198.25;;;20.26
51693;BMP280;37777;53.066;21.638;2023-08-06T04:27:50;99194.16;;;20.44
51693;BMP280;37777;53.066;21.638;2023-08-06T04:34:52;99193.16;;;20.72
51693;BMP280;37777;53.066;21.638;2023-08-06T04:41:54;99173.50;;;20.96
51693;BMP280;37777;53.066;21.638;2023-08-06T04:48:56;99162.66;;;21.24
51693;BMP280;37777;53.066;21.638;2023-08-06T04:55:57;99154.69;;;21.48
51693;BMP280;37777;53.066;21.638;2023-08-06T05:02:59;99140.53;;;21.77
51693;BMP280;37777;53.066;21.638;2023-08-06T05:10:02;99126.34;;;21.97
51693;BMP280;37777;53.066;21.638;2023-08-06T05:17:05;99125.63;;;22.24
51693;BMP280;37777;53.066;21.638;2023-08-06T05:24:07;99108.03;;;22.31
51693;BMP280;37777;53.066;21.638;2023-08-06T05:31:08;99107.38;;;22.54
51693;BMP280;37777;53.066;21.638;2023-08-06T05:38:10;99086.22;;;22.70
51693;BMP280;37777;53.066;21.638;2023-08-06T05:45:11;99070.13;;;22.77
51693;BMP280;37777;53.066;21.638;2023-08-06T05:52:13;99055.72;;;22.83
51693;BMP280;37777;53.066;21.638;2023-08-06T05:59:14;99057.66;;;22.91
51693;BMP280;37777;53.066;21.638;2023-08-06T06:06:15;99041.16;;;23.15
51693;BMP280;37777;53.066;21.638;2023-08-06T06:13:18;99029.88;;;23.28
51693;BMP280;37777;53.066;21.638;2023-08-06T06:20:20;99026.84;;;23.50
51693;BMP280;37777;53.066;21.638;2023-08-06T06:27:21;99014.44;;;23.70
51693;BMP280;37777;53.066;21.638;2023-08-06T06:34:22;99011.28;;;23.77
51693;BMP280;37777;53.066;21.638;2023-08-06T06:41:24;98990.19;;;24.04
51693;BMP280;37777;53.066;21.638;2023-08-06T06:48:29;98978.38;;;24.03
51693;BMP280;37777;53.066;21.638;2023-08-06T06:55:30;98980.84;;;24.16
51693;BMP280;37777;53.066;21.638;2023-08-06T07:02:32;98976.25;;;24.43
51693;BMP280;37777;53.066;21.638;2023-08-06T07:09:33;98972.44;;;24.55
51693;BMP280;37777;53.066;21.638;2023-08-06T07:16:35;98955.19;;;24.80
51693;BMP280;37777;53.066;21.638;2023-08-06T07:23:36;98941.38;;;25.01
51693;BMP280;37777;53.066;21.638;2023-08-06T07:30:39;98930.56;;;25.23
51693;BMP280;37777;53.066;21.638;2023-08-06T07:37:40;98936.63;;;25.28
51693;BMP280;37777;53.066;21.638;2023-08-06T07:44:42;98930.38;;;25.53
51693;BMP280;37777;53.066;21.638;2023-08-06T07:51:43;98930.84;;;25.78
51693;BMP280;37777;53.066;21.638;2023-08-06T07:58:45;98923.88;;;25.88
51693;BMP280;37777;53.066;21.638;2023-08-06T08:05:46;98909.19;;;26.14
51693;BMP280;37777;53.066;21.638;2023-08-06T08:12:48;98903.53;;;26.29
51693;BMP280;37777;53.066;21.638;2023-08-06T08:19:49;98898.56;;;26.50
51693;BMP280;37777;53.066;21.638;2023-08-06T08:26:51;98889.84;;;26.68
51693;BMP280;37777;53.066;21.638;2023-08-06T08:33:53;98879.03;;;26.81
51693;BMP280;37777;53.066;21.638;2023-08-06T08:40:56;98875.06;;;26.99
51693;BMP280;37777;53.066;21.638;2023-08-06T08:47:58;98875.34;;;27.13
51693;BMP280;37777;53.066;21.638;2023-08-06T08:55:01;98865.28;;;27.26
51693;BMP280;37777;53.066;21.638;2023-08-06T09:02:02;98877.16;;;27.49
51693;BMP280;37777;53.066;21.638;2023-08-06T09:09:16;98864.78;;;27.67
51693;BMP280;37777;53.066;21.638;2023-08-06T09:16:19;98853.66;;;27.79
51693;BMP280;37777;53.066;21.638;2023-08-06T09:23:20;98848.28;;;28.09
51693;BMP280;37777;53.066;21.638;2023-08-06T09:30:33;98837.34;;;28.28
51693;BMP280;37777;53.066;21.638;2023-08-06T09:37:37;98827.19;;;28.42
51693;BMP280;37777;53.066;21.638;2023-08-06T09:44:40;98829.97;;;28.42
51693;BMP280;37777;53.066;21.638;2023-08-06T09:51:42;98817.06;;;28.86
51693;BMP280;37777;53.066;21.638;2023-08-06T09:58:46;98806.88;;;29.00
51693;BMP280;37777;53.066;21.638;2023-08-06T10:05:48;98801.91;;;29.17
51693;BMP280;37777;53.066;21.638;2023-08-06T10:12:52;98791.50;;;29.48
51693;BMP280;37777;53.066;21.638;2023-08-06T10:19:55;98787.66;;;29.26
51693;BMP280;37777;53.066;21.638;2023-08-06T10:26:58;98768.66;;;29.55
51693;BMP280;37777;53.066;21.638;2023-08-06T10:34:00;98758.00;;;29.78
51693;BMP280;37777;53.066;21.638;2023-08-06T10:41:02;98735.28;;;29.93
51693;BMP280;37777;53.066;21.638;2023-08-06T10:48:04;98750.16;;;30.14
51693;BMP280;37777;53.066;21.638;2023-08-06T10:55:06;98738.28;;;30.14
51693;BMP280;37777;53.066;21.638;2023-08-06T11:02:08;98734.28;;;30.28
51693;BMP280;37777;53.066;21.638;2023-08-06T11:09:10;98728.38;;;30.51
51693;BMP280;37777;53.066;21.638;2023-08-06T11:16:19;98728.00;;;30.86
51693;BMP280;37777;53.066;21.638;2023-08-06T11:23:21;98705.50;;;30.84
51693;BMP280;37777;53.066;21.638;2023-08-06T11:30:23;98701.63;;;30.42
51693;BMP280;37777;53.066;21.638;2023-08-06T11:37:24;98685.66;;;30.23
51693;BMP280;37777;53.066;21.638;2023-08-06T11:44:30;98691.19;;;30.29
51693;BMP280;37777;53.066;21.638;2023-08-06T11:51:32;98673.69;;;30.61
51693;BMP280;37777;53.066;21.638;2023-08-06T11:58:34;98656.38;;;30.49
51693;BMP280;37777;53.066;21.638;2023-08-06T12:05:35;98653.41;;;29.77
51693;BMP280;37777;53.066;21.638;2023-08-06T12:12:37;98636.03;;;29.90
51693;BMP280;37777;53.066;21.638;2023-08-06T12:19:39;98614.09;;;30.32
51693;BMP280;37777;53.066;21.638;2023-08-06T12:26:41;98610.56;;;30.44
51693;BMP280;37777;53.066;21.638;2023-08-06T12:33:42;98607.63;;;30.69
51693;BMP280;37777;53.066;21.638;2023-08-06T12:40:44;98605.16;;;30.20
51693;BMP280;37777;53.066;21.638;2023-08-06T12:47:45;98611.78;;;29.66
51693;BMP280;37777;53.066;21.638;2023-08-06T12:54:47;98612.72;;;30.38
51693;BMP280;37777;53.066;21.638;2023-08-06T13:01:49;98592.50;;;30.78
51693;BMP280;37777;53.066;21.638;2023-08-06T13:08:51;98595.75;;;30.50
51693;BMP280;37777;53.066;21.638;2023-08-06T13:15:52;98574.44;;;30.65
51693;BMP280;37777;53.066;21.638;2023-08-06T13:22:54;98568.13;;;30.52
51693;BMP280;37777;53.066;21.638;2023-08-06T13:29:56;98563.38;;;30.46
51693;BMP280;37777;53.066;21.638;2023-08-06T13:36:57;98543.97;;;30.94
51693;BMP280;37777;53.066;21.638;2023-08-06T13:43:59;98514.44;;;31.12
51693;BMP280;37777;53.066;21.638;2023-08-06T13:51:00;98510.81;;;31.25
51693;BMP280;37777;53.066;21.638;2023-08-06T13:58:02;98503.97;;;31.26
51693;BMP280;37777;53.066;21.638;2023-08-06T14:05:04;98511.25;;;31.29
51693;BMP280;37777;53.066;21.638;2023-08-06T14:12:06;98509.03;;;31.48
51693;BMP280;37777;53.066;21.638;2023-08-06T14:19:07;98505.56;;;31.56
51693;BMP280;37777;53.066;21.638;2023-08-06T14:26:09;98506.19;;;31.27
51693;BMP280;37777;53.066;21.638;2023-08-06T14:33:12;98519.38;;;31.06
51693;BMP280;37777;53.066;21.638;2023-08-06T14:40:27;98526.44;;;31.07
51693;BMP280;37777;53.066;21.638;2023-08-06T14:47:34;98525.53;;;30.78
51693;BMP280;37777;53.066;21.638;2023-08-06T14:54:36;98515.44;;;30.48
51693;BMP280;37777;53.066;21.638;2023-08-06T15:01:37;98531.19;;;30.59
51693;BMP280;37777;53.066;21.638;2023-08-06T15:08:39;98543.25;;;30.80
51693;BMP280;37777;53.066;21.638;2023-08-06T15:15:40;98522.88;;;31.06
51693;BMP280;37777;53.066;21.638;2023-08-06T15:22:43;98534.66;;;30.65
51693;BMP280;37777;53.066;21.638;2023-08-06T15:29:45;98537.44;;;30.52
51693;BMP280;37777;53.066;21.638;2023-08-06T15:36:46;98543.91;;;30.14
51693;BMP280;37777;53.066;21.638;2023-08-06T15:43:48;98517.19;;;29.92
51693;BMP280;37777;53.066;21.638;2023-08-06T15:50:49;98568.31;;;29.76
51693;BMP280;37777;53.066;21.638;2023-08-06T15:57:51;98581.66;;;29.64
51693;BMP280;37777;53.066;21.638;2023-08-06T16:04:53;98605.06;;;29.55
51693;BMP280;37777;53.066;21.638;2023-08-06T16:11:54;98613.88;;;29.41
51693;BMP280;37777;53.066;21.638;2023-08-06T16:18:56;98626.13;;;29.07
51693;BMP280;37777;53.066;21.638;2023-08-06T16:25:57;98617.78;;;28.83
51693;BMP280;37777;53.066;21.638;2023-08-06T16:32:59;98614.91;;;28.69
51693;BMP280;37777;53.066;21.638;2023-08-06T16:40:01;98612.75;;;28.57
51693;BMP280;37777;53.066;21.638;2023-08-06T16:47:03;98592.19;;;28.35
51693;BMP280;37777;53.066;21.638;2023-08-06T16:54:07;98584.25;;;28.15
51693;BMP280;37777;53.066;21.638;2023-08-06T17:01:08;98581.09;;;27.99
51693;BMP280;37777;53.066;21.638;2023-08-06T17:08:10;98607.16;;;27.90
51693;BMP280;37777;53.066;21.638;2023-08-06T17:15:11;98618.03;;;27.83
51693;BMP280;37777;53.066;21.638;2023-08-06T17:22:13;98626.94;;;27.76
51693;BMP280;37777;53.066;21.638;2023-08-06T17:29:15;98640.84;;;27.70
51693;BMP280;37777;53.066;21.638;2023-08-06T17:36:16;98634.31;;;27.62
51693;BMP280;37777;53.066;21.638;2023-08-06T17:43:18;98640.19;;;27.47
51693;BMP280;37777;53.066;21.638;2023-08-06T17:50:19;98630.66;;;27.25
51693;BMP280;37777;53.066;21.638;2023-08-06T17:57:21;98650.59;;;27.13
51693;BMP280;37777;53.066;21.638;2023-08-06T18:04:22;98648.59;;;27.02
51693;BMP280;37777;53.066;21.638;2023-08-06T18:11:24;98653.63;;;26.86
51693;BMP280;37777;53.066;21.638;2023-08-06T18:18:25;98656.44;;;26.70
51693;BMP280;37777;53.066;21.638;2023-08-06T18:25:27;98651.38;;;26.68
51693;BMP280;37777;53.066;21.638;2023-08-06T18:32:28;98681.38;;;26.64
51693;BMP280;37777;53.066;21.638;2023-08-06T18:39:31;98680.63;;;26.52
51693;BMP280;37777;53.066;21.638;2023-08-06T18:46:32;98686.16;;;26.35
51693;BMP280;37777;53.066;21.638;2023-08-06T18:53:34;98661.66;;;26.17
51693;BMP280;37777;53.066;21.638;2023-08-06T19:00:41;98646.13;;;25.71
51693;BMP280;37777;53.066;21.638;2023-08-06T19:07:42;98639.06;;;25.70
51693;BMP280;37777;53.066;21.638;2023-08-06T19:14:44;98626.38;;;25.52
51693;BMP280;37777;53.066;21.638;2023-08-06T19:21:45;98616.91;;;25.15
51693;BMP280;37777;53.066;21.638;2023-08-06T19:28:50;98635.97;;;25.13
51693;BMP280;37777;53.066;21.638;2023-08-06T19:35:53;98638.41;;;25.00
51693;BMP280;37777;53.066;21.638;2023-08-06T19:42:54;98633.31;;;24.87
51693;BMP280;37777;53.066;21.638;2023-08-06T19:49:56;98641.00;;;24.51
51693;BMP280;37777;53.066;21.638;2023-08-06T19:56:57;98655.06;;;24.48
51693;BMP280;37777;53.066;21.638;2023-08-06T20:03:59;98642.94;;;24.19
51693;BMP280;37777;53.066;21.638;2023-08-06T20:11:00;98648.75;;;24.00
51693;BMP280;37777;53.066;21.638;2023-08-06T20:18:02;98661.84;;;23.85
51693;BMP280;37777;53.066;21.638;2023-08-06T20:25:03;98667.47;;;23.76
51693;BMP280;37777;53.066;21.638;2023-08-06T20:32:05;98683.09;;;23.79
51693;BMP280;37777;53.066;21.638;2023-08-06T20:39:07;98697.03;;;23.70
51693;BMP280;37777;53.066;21.638;2023-08-06T20:46:11;98711.88;;;23.57
51693;BMP280;37777;53.066;21.638;2023-08-06T20:53:12;98713.34;;;23.23
51693;BMP280;37777;53.066;21.638;2023-08-06T21:00:14;98732.47;;;22.97
51693;BMP280;37777;53.066;21.638;2023-08-06T21:07:15;98714.41;;;22.96
51693;BMP280;37777;53.066;21.638;2023-08-06T21:14:17;98720.41;;;22.94
51693;BMP280;37777;53.066;21.638;2023-08-06T21:21:18;98721.81;;;22.75
51693;BMP280;37777;53.066;21.638;2023-08-06T21:28:20;98702.75;;;22.62
51693;BMP280;37777;53.066;21.638;2023-08-06T21:35:21;98695.84;;;22.52
51693;BMP280;37777;53.066;21.638;2023-08-06T21:42:22;98698.28;;;22.26
51693;BMP280;37777;53.066;21.638;2023-08-06T21:49:24;98691.53;;;22.03
51693;BMP280;37777;53.066;21.638;2023-08-06T21:56:25;98712.06;;;22.02
51693;BMP280;37777;53.066;21.638;2023-08-06T22:03:27;98730.84;;;21.79
51693;BMP280;37777;53.066;21.638;2023-08-06T22:10:29;98746.59;;;22.03
51693;BMP280;37777;53.066;21.638;2023-08-06T22:17:30;98770.19;;;21.94
51693;BMP280;37777;53.066;21.638;2023-08-06T22:24:32;98781.38;;;21.82
51693;BMP280;37777;53.066;21.638;2023-08-06T22:31:34;98789.56;;;21.57
51693;BMP280;37777;53.066;21.638;2023-08-06T22:38:35;98785.34;;;21.29
51693;BMP280;37777;53.066;21.638;2023-08-06T22:45:36;98775.59;;;20.91
51693;BMP280;37777;53.066;21.638;2023-08-06T22:52:38;98790.38;;;20.75
51693;BMP280;37777;53.066;21.638;2023-08-06T22:59:40;98800.78;;;20.71
51693;BMP280;37777;53.066;21.638;2023-08-06T23:06:41;98806.00;;;20.28
51693;BMP280;37777;53.066;21.638;2023-08-06T23:13:43;98818.22;;;20.05
51693;BMP280;37777;53.066;21.638;2023-08-06T23:20:44;98807.88;;;20.09
51693;BMP280;37777;53.066;21.638;2023-08-06T23:27:46;98796.72;;;20.03
51693;BMP280;37777;53.066;21.638;2023-08-06T23:34:47;98780.25;;;20.03
51693;BMP280;37777;53.066;21.638;2023-08-06T23:41:54;98773.56;;;20.05
51693;BMP280;37777;53.066;21.638;2023-08-06T23:48:56;98753.78;;;19.78
51693;BMP280;37777;53.066;21.638;2023-08-06T23:55:57;98737.50;;;19.84
